Time;durP1;ratioP1;P1;durP2;ratioP2;P2;SDS_P1;SDS_P2;PMS_P1;PMS_P2;Temp;Humidity;BMP_temperature;BMP_pressure;BME280_temperature;BME280_humidity;BME280_pressure;Samples;Min_cycle;Max_cycle;Signal;HPM_P1;HPM_P2
2021/05/14 00:01:01;;;;;;;7.07;2.53;;;;;;;;;;2089988;28;20540;-69
2021/05/14 00:02:03;;;;;;;5.22;2.40;;;;;;;;;;2090341;28;20025;-68
2021/05/14 00:03:04;;;;;;;8.02;2.83;;;;;;;;;;2090404;28;20037;-69
2021/05/14 00:04:04;;;;;;;6.78;2.45;;;;;;;;;;2090458;28;20540;-69
2021/05/14 00:05:05;;;;;;;6.78;2.47;;;;;;;;;;2090225;28;20053;-69
2021/05/14 00:06:05;;;;;;;6.93;2.70;;;;;;;;;;2089621;28;20404;-69
2021/05/14 00:07:06;;;;;;;5.22;2.53;;;;;;;;;;2081540;28;20116;-69
2021/05/14 00:08:06;;;;;;;6.40;2.90;;;;;;;;;;2089362;28;20025;-69
2021/05/14 00:09:07;;;;;;;4.97;2.25;;;;;;;;;;2090417;28;20071;-68
2021/05/14 00:10:09;;;;;;;5.55;2.33;;;;;;;;;;2089873;28;20068;-69
2021/05/14 00:11:09;;;;;;;4.68;2.30;;;;;;;;;;2090356;28;20480;-69
2021/05/14 00:12:10;;;;;;;6.20;2.30;;;;;;;;;;2090298;28;20035;-69
2021/05/14 00:13:10;;;;;;;4.70;2.22;;;;;;;;;;2090506;28;20028;-68
2021/05/14 00:14:11;;;;;;;5.90;2.40;;;;;;;;;;2090371;28;20487;-68
2021/05/14 00:15:11;;;;;;;6.70;2.50;;;;;;;;;;2089830;28;20033;-68
2021/05/14 00:16:11;;;;;;;6.05;2.60;;;;;;;;;;2090339;28;20108;-69
2021/05/14 00:17:12;;;;;;;7.57;2.70;;;;;;;;;;2089702;28;20087;-68
2021/05/14 00:18:12;;;;;;;5.35;2.17;;;;;;;;;;2089690;28;20107;-68
2021/05/14 00:19:12;;;;;;;5.78;2.30;;;;;;;;;;2090328;28;20029;-68
2021/05/14 00:20:13;;;;;;;5.22;2.13;;;;;;;;;;2089674;28;20551;-68
2021/05/14 00:21:13;;;;;;;7.45;2.50;;;;;;;;;;2090423;28;20028;-68
2021/05/14 00:22:13;;;;;;;6.28;2.40;;;;;;;;;;2090223;28;20059;-68
2021/05/14 00:23:14;;;;;;;7.13;2.40;;;;;;;;;;2089921;28;20025;-68
2021/05/14 00:24:14;;;;;;;6.07;2.30;;;;;;;;;;2090128;28;20086;-68
2021/05/14 00:25:14;;;;;;;5.78;2.00;;;;;;;;;;2090326;28;20052;-68
2021/05/14 00:26:15;;;;;;;5.50;2.25;;;;;;;;;;2090252;28;20021;-69
2021/05/14 00:27:15;;;;;;;5.97;2.55;;;;;;;;;;2090365;28;20044;-68
2021/05/14 00:28:15;;;;;;;5.72;2.50;;;;;;;;;;2090122;28;20033;-68
2021/05/14 00:29:16;;;;;;;4.82;2.55;;;;;;;;;;2090401;28;20052;-68
2021/05/14 00:30:16;;;;;;;5.63;2.40;;;;;;;;;;2089307;28;20547;-68
2021/05/14 00:31:17;;;;;;;5.55;2.33;;;;;;;;;;2090241;28;20082;-68
2021/05/14 00:32:17;;;;;;;4.03;2.10;;;;;;;;;;2090116;28;20032;-68
2021/05/14 00:33:18;;;;;;;5.70;2.28;;;;;;;;;;2090296;28;20025;-68
2021/05/14 00:34:18;;;;;;;6.40;2.50;;;;;;;;;;2090151;28;20032;-68
2021/05/14 00:35:18;;;;;;;6.07;2.17;;;;;;;;;;2090153;28;20032;-68
2021/05/14 00:36:19;;;;;;;5.55;2.17;;;;;;;;;;2090153;28;20040;-68
2021/05/14 00:37:19;;;;;;;4.25;2.10;;;;;;;;;;2089741;28;20113;-69
2021/05/14 00:38:20;;;;;;;8.35;2.38;;;;;;;;;;2090179;28;20039;-70
2021/05/14 00:39:20;;;;;;;5.85;2.40;;;;;;;;;;2090201;28;20044;-68
2021/05/14 00:40:21;;;;;;;7.22;2.50;;;;;;;;;;2089716;28;20063;-70
2021/05/14 00:41:21;;;;;;;4.82;2.22;;;;;;;;;;2090103;28;20025;-69
2021/05/14 00:42:22;;;;;;;4.75;2.15;;;;;;;;;;2090055;28;20025;-69
2021/05/14 00:43:22;;;;;;;6.80;2.22;;;;;;;;;;2090083;28;20060;-70
2021/05/14 00:44:23;;;;;;;9.18;2.53;;;;;;;;;;2089969;28;20029;-69
2021/05/14 00:45:23;;;;;;;5.07;2.40;;;;;;;;;;2089747;28;20060;-69
2021/05/14 00:46:25;;;;;;;6.03;2.63;;;;;;;;;;2087939;28;20037;-68
2021/05/14 00:47:25;;;;;;;5.88;2.63;;;;;;;;;;2090191;28;20025;-69
2021/05/14 00:48:25;;;;;;;4.10;2.17;;;;;;;;;;2090003;28;20495;-69
2021/05/14 00:49:26;;;;;;;5.38;2.70;;;;;;;;;;2090077;28;20061;-69
2021/05/14 00:50:27;;;;;;;6.15;2.65;;;;;;;;;;2089509;28;20029;-70
2021/05/14 00:51:27;;;;;;;5.43;2.80;;;;;;;;;;2090018;28;20484;-69
2021/05/14 00:52:28;;;;;;;6.82;2.60;;;;;;;;;;2089555;28;20548;-69
2021/05/14 00:53:28;;;;;;;4.95;2.75;;;;;;;;;;2089331;28;20028;-69
2021/05/14 00:54:29;;;;;;;6.13;2.75;;;;;;;;;;2089454;28;20049;-69
2021/05/14 00:55:29;;;;;;;5.25;2.85;;;;;;;;;;2090188;28;20029;-69
2021/05/14 00:56:30;;;;;;;6.45;2.85;;;;;;;;;;2090033;28;20079;-70
2021/05/14 00:57:31;;;;;;;9.07;3.40;;;;;;;;;;2090024;28;20029;-69
2021/05/14 00:58:31;;;;;;;7.00;2.63;;;;;;;;;;2090004;28;20707;-70
2021/05/14 00:59:32;;;;;;;7.57;2.78;;;;;;;;;;2089538;28;20029;-69
2021/05/14 01:00:32;;;;;;;5.32;2.80;;;;;;;;;;2089638;28;20119;-69
2021/05/14 01:01:32;;;;;;;4.85;2.88;;;;;;;;;;2089860;28;20455;-68
2021/05/14 01:02:33;;;;;;;8.20;3.08;;;;;;;;;;2089449;28;20064;-70
2021/05/14 01:03:33;;;;;;;5.43;3.17;;;;;;;;;;2089872;28;20081;-69
2021/05/14 01:04:33;;;;;;;5.93;3.08;;;;;;;;;;2089970;28;20035;-69
2021/05/14 01:05:34;;;;;;;6.63;3.08;;;;;;;;;;2089836;28;20025;-69
2021/05/14 01:06:34;;;;;;;5.32;2.92;;;;;;;;;;2083993;28;20045;-69
2021/05/14 01:07:34;;;;;;;5.65;3.10;;;;;;;;;;2084962;28;20488;-70
2021/05/14 01:08:35;;;;;;;7.18;2.75;;;;;;;;;;2087617;28;20029;-69
2021/05/14 01:09:38;;;;;;;7.53;3.13;;;;;;;;;;2087117;28;20388;-70
2021/05/14 01:10:39;;;;;;;7.22;3.42;;;;;;;;;;2088341;28;20029;-68
2021/05/14 01:11:40;;;;;;;8.70;3.42;;;;;;;;;;2089260;28;20044;-68
2021/05/14 01:12:41;;;;;;;6.95;3.17;;;;;;;;;;2089232;28;20127;-68
2021/05/14 01:13:41;;;;;;;8.00;3.10;;;;;;;;;;2089335;28;20078;-70
2021/05/14 01:14:42;;;;;;;4.55;3.10;;;;;;;;;;2089400;28;20119;-68
2021/05/14 01:15:42;;;;;;;7.97;3.20;;;;;;;;;;2089088;28;20037;-69
2021/05/14 01:16:42;;;;;;;6.00;3.17;;;;;;;;;;2089143;28;20468;-67
2021/05/14 01:17:43;;;;;;;5.70;3.10;;;;;;;;;;2089814;28;20040;-69
2021/05/14 01:18:43;;;;;;;6.13;3.00;;;;;;;;;;2089828;28;20441;-69
2021/05/14 01:19:43;;;;;;;7.60;2.90;;;;;;;;;;2089905;28;20164;-69
2021/05/14 01:20:44;;;;;;;7.95;3.22;;;;;;;;;;2089082;28;20029;-68
2021/05/14 01:21:44;;;;;;;7.28;3.35;;;;;;;;;;2089441;28;20040;-68
2021/05/14 01:22:44;;;;;;;6.13;2.90;;;;;;;;;;2089171;28;20411;-68
2021/05/14 01:23:45;;;;;;;8.15;3.22;;;;;;;;;;2089211;28;20035;-68
2021/05/14 01:24:45;;;;;;;8.43;3.10;;;;;;;;;;2089757;28;20041;-69
2021/05/14 01:25:47;;;;;;;8.20;3.15;;;;;;;;;;2089790;28;20029;-69
2021/05/14 01:26:47;;;;;;;7.32;2.70;;;;;;;;;;2089706;28;20118;-68
2021/05/14 01:27:48;;;;;;;6.72;3.00;;;;;;;;;;2089797;28;20102;-68
2021/05/14 01:28:48;;;;;;;7.78;3.25;;;;;;;;;;2089705;28;20025;-68
2021/05/14 01:29:48;;;;;;;6.60;2.75;;;;;;;;;;2089198;28;20037;-68
2021/05/14 01:30:49;;;;;;;6.40;2.80;;;;;;;;;;2089299;28;20067;-68
2021/05/14 01:31:50;;;;;;;8.00;3.10;;;;;;;;;;2089894;28;20028;-68
2021/05/14 01:32:50;;;;;;;5.93;2.92;;;;;;;;;;2089700;28;20079;-68
2021/05/14 01:33:51;;;;;;;6.05;2.55;;;;;;;;;;2089765;28;20107;-68
2021/05/14 01:34:51;;;;;;;5.45;2.97;;;;;;;;;;2083016;28;20024;-68
2021/05/14 01:35:51;;;;;;;6.80;3.28;;;;;;;;;;2097227;28;20124;-68
2021/05/14 01:36:52;;;;;;;6.35;2.90;;;;;;;;;;2096828;28;20043;-68
2021/05/14 01:37:52;;;;;;;7.28;3.10;;;;;;;;;;2089852;28;20032;-68
2021/05/14 01:38:53;;;;;;;5.25;2.50;;;;;;;;;;2089543;28;20108;-69
2021/05/14 01:39:53;;;;;;;5.07;2.47;;;;;;;;;;2089791;28;20115;-68
2021/05/14 01:40:53;;;;;;;4.88;2.97;;;;;;;;;;2089194;28;20470;-68
2021/05/14 01:41:54;;;;;;;6.68;2.80;;;;;;;;;;2089775;28;20059;-68
2021/05/14 01:42:54;;;;;;;6.00;3.08;;;;;;;;;;2089439;28;20045;-68
2021/05/14 01:43:55;;;;;;;6.88;3.20;;;;;;;;;;2089297;28;20044;-68
2021/05/14 01:44:55;;;;;;;6.03;2.72;;;;;;;;;;2089569;28;20025;-68
2021/05/14 01:45:55;;;;;;;6.00;2.70;;;;;;;;;;2089745;28;20033;-68
2021/05/14 01:46:56;;;;;;;6.70;3.00;;;;;;;;;;2089644;28;20048;-68
2021/05/14 01:47:56;;;;;;;6.50;3.20;;;;;;;;;;2089564;28;20041;-68
2021/05/14 01:48:57;;;;;;;6.28;2.83;;;;;;;;;;2089553;28;20033;-68
2021/05/14 01:49:57;;;;;;;4.78;2.63;;;;;;;;;;2089355;28;20048;-68
2021/05/14 01:51:06;;;;;;;5.38;2.53;;;;;;;;;;2089273;28;20031;-68
2021/05/14 01:52:07;;;;;;;5.07;2.50;;;;;;;;;;2082610;28;20025;-68
2021/05/14 01:53:07;;;;;;;6.82;3.10;;;;;;;;;;2097099;28;20035;-68
2021/05/14 01:54:08;;;;;;;6.32;3.03;;;;;;;;;;2097212;28;20475;-69
2021/05/14 01:55:08;;;;;;;5.80;2.65;;;;;;;;;;2089706;28;20415;-69
2021/05/14 01:56:09;;;;;;;5.95;2.63;;;;;;;;;;2089448;28;20021;-68
2021/05/14 01:57:09;;;;;;;4.18;2.40;;;;;;;;;;2089685;28;20086;-69
2021/05/14 01:58:09;;;;;;;5.65;2.95;;;;;;;;;;2089394;28;20568;-68
2021/05/14 01:59:10;;;;;;;6.32;2.53;;;;;;;;;;2096762;28;20033;-68
2021/05/14 02:00:11;;;;;;;7.22;2.92;;;;;;;;;;2096969;28;20115;-68
2021/05/14 02:01:12;;;;;;;7.88;2.70;;;;;;;;;;2089080;28;20111;-68
2021/05/14 02:02:18;;;;;;;6.15;2.53;;;;;;;;;;2089441;28;20036;-68
2021/05/14 02:03:18;;;;;;;5.40;2.80;;;;;;;;;;2089697;28;20549;-68
2021/05/14 02:04:19;;;;;;;6.47;2.90;;;;;;;;;;2089234;28;20090;-69
2021/05/14 02:05:19;;;;;;;5.45;2.38;;;;;;;;;;2089364;28;20040;-69
2021/05/14 02:06:19;;;;;;;7.53;2.55;;;;;;;;;;2088981;28;20063;-68
2021/05/14 02:07:20;;;;;;;7.22;2.60;;;;;;;;;;2089614;28;20025;-68
2021/05/14 02:08:20;;;;;;;7.45;2.50;;;;;;;;;;2089350;28;20175;-69
2021/05/14 02:09:21;;;;;;;5.40;2.53;;;;;;;;;;2089577;28;20462;-67
2021/05/14 02:10:22;;;;;;;6.97;2.92;;;;;;;;;;2089319;28;20032;-67
2021/05/14 02:11:22;;;;;;;5.85;2.65;;;;;;;;;;2089218;28;20025;-67
2021/05/14 02:12:23;;;;;;;6.22;2.30;;;;;;;;;;2089395;28;20559;-68
2021/05/14 02:13:23;;;;;;;5.20;2.08;;;;;;;;;;2088516;28;20481;-68
2021/05/14 02:14:23;;;;;;;5.40;2.58;;;;;;;;;;2088374;28;20389;-68
2021/05/14 02:15:24;;;;;;;8.60;2.72;;;;;;;;;;2089336;28;20476;-68
2021/05/14 02:16:24;;;;;;;6.95;2.58;;;;;;;;;;2096946;28;20036;-68
2021/05/14 02:17:25;;;;;;;7.45;2.30;;;;;;;;;;2097065;28;20529;-68
2021/05/14 02:18:25;;;;;;;6.22;2.45;;;;;;;;;;2089345;28;20376;-68
2021/05/14 02:19:25;;;;;;;5.68;2.40;;;;;;;;;;2089504;28;20037;-68
2021/05/14 02:20:26;;;;;;;4.03;2.25;;;;;;;;;;2089240;28;20040;-67
2021/05/14 02:21:27;;;;;;;4.60;2.40;;;;;;;;;;2088732;28;20032;-67
2021/05/14 02:22:27;;;;;;;4.63;2.05;;;;;;;;;;2089202;28;20498;-68
2021/05/14 02:23:28;;;;;;;9.48;2.38;;;;;;;;;;2089424;28;20036;-68
2021/05/14 02:24:28;;;;;;;3.90;2.15;;;;;;;;;;2088582;28;20025;-68
2021/05/14 02:25:28;;;;;;;4.32;2.10;;;;;;;;;;2088815;28;20037;-68
2021/05/14 02:26:29;;;;;;;5.75;2.60;;;;;;;;;;2089178;28;20036;-68
2021/05/14 02:27:29;;;;;;;5.28;2.33;;;;;;;;;;2089521;28;20029;-68
2021/05/14 02:28:30;;;;;;;5.20;2.22;;;;;;;;;;2088833;28;20479;-67
2021/05/14 02:29:34;;;;;;;5.03;2.53;;;;;;;;;;2089322;28;20077;-67
2021/05/14 02:30:35;;;;;;;5.53;2.30;;;;;;;;;;2088760;28;20377;-68
2021/05/14 02:31:35;;;;;;;7.30;2.63;;;;;;;;;;2089275;28;20040;-68
2021/05/14 02:32:36;;;;;;;5.25;2.13;;;;;;;;;;2089291;28;20392;-68
2021/05/14 02:33:36;;;;;;;5.13;2.20;;;;;;;;;;2089307;28;20032;-68
2021/05/14 02:34:36;;;;;;;6.45;2.25;;;;;;;;;;2089303;28;20029;-67
2021/05/14 02:35:37;;;;;;;4.70;2.30;;;;;;;;;;2081766;28;20550;-67
2021/05/14 02:36:37;;;;;;;7.93;2.65;;;;;;;;;;2088478;28;20037;-69
2021/05/14 02:37:38;;;;;;;6.40;2.20;;;;;;;;;;2089225;28;20498;-68
2021/05/14 02:38:38;;;;;;;5.47;2.45;;;;;;;;;;2089288;28;20483;-68
2021/05/14 02:39:38;;;;;;;5.45;2.10;;;;;;;;;;2087672;28;20075;-67
2021/05/14 02:40:39;;;;;;;6.63;2.30;;;;;;;;;;2089020;28;20107;-67
2021/05/14 02:41:39;;;;;;;5.45;2.30;;;;;;;;;;2089205;28;20480;-67
2021/05/14 02:42:39;;;;;;;5.95;2.40;;;;;;;;;;2089130;28;20512;-67
2021/05/14 02:43:40;;;;;;;5.38;2.35;;;;;;;;;;2088710;28;20029;-68
2021/05/14 02:44:41;;;;;;;8.50;2.95;;;;;;;;;;2089180;28;20040;-67
2021/05/14 02:45:41;;;;;;;7.20;2.40;;;;;;;;;;2089234;28;20486;-67
2021/05/14 02:46:42;;;;;;;5.40;2.28;;;;;;;;;;2089193;28;20407;-67
2021/05/14 02:47:43;;;;;;;4.70;2.30;;;;;;;;;;2089204;28;20075;-68
2021/05/14 02:48:43;;;;;;;6.82;2.15;;;;;;;;;;2089129;28;20025;-68
2021/05/14 02:49:43;;;;;;;5.65;2.20;;;;;;;;;;2089168;28;20510;-68
2021/05/14 02:50:43;;;;;;;6.20;2.28;;;;;;;;;;2088107;28;20086;-68
2021/05/14 02:51:44;;;;;;;5.07;2.30;;;;;;;;;;2089177;28;20029;-68
2021/05/14 02:52:44;;;;;;;6.80;2.40;;;;;;;;;;2089251;28;20037;-68
2021/05/14 02:53:44;;;;;;;5.47;2.50;;;;;;;;;;2089207;28;20476;-68
2021/05/14 02:54:45;;;;;;;5.65;2.50;;;;;;;;;;2089147;28;20021;-68
2021/05/14 02:55:45;;;;;;;6.28;2.50;;;;;;;;;;2089207;28;20302;-68
2021/05/14 02:56:45;;;;;;;5.07;2.28;;;;;;;;;;2089343;28;20021;-68
2021/05/14 02:57:47;;;;;;;6.03;2.60;;;;;;;;;;2088408;28;20032;-68
2021/05/14 02:58:47;;;;;;;5.82;2.42;;;;;;;;;;2088197;28;20043;-68
2021/05/14 02:59:47;;;;;;;6.25;2.30;;;;;;;;;;2089113;28;20388;-68
2021/05/14 03:00:48;;;;;;;4.47;2.15;;;;;;;;;;2088743;28;20109;-67
2021/05/14 03:01:48;;;;;;;6.43;2.40;;;;;;;;;;2089155;28;20496;-68
2021/05/14 03:02:48;;;;;;;9.82;2.80;;;;;;;;;;2089129;28;20108;-68
2021/05/14 03:03:49;;;;;;;4.40;2.00;;;;;;;;;;2089235;28;20135;-67
2021/05/14 03:04:49;;;;;;;6.95;2.38;;;;;;;;;;2089101;28;20041;-67
2021/05/14 03:05:49;;;;;;;5.72;2.45;;;;;;;;;;2088541;28;20100;-67
2021/05/14 03:06:50;;;;;;;6.13;2.40;;;;;;;;;;2088508;28;20044;-69
2021/05/14 03:07:50;;;;;;;6.85;2.20;;;;;;;;;;2088610;28;20033;-68
2021/05/14 03:08:51;;;;;;;4.07;1.98;;;;;;;;;;2089060;28;20041;-68
2021/05/14 03:09:51;;;;;;;5.15;2.30;;;;;;;;;;2089156;28;20025;-68
2021/05/14 03:10:51;;;;;;;4.47;2.08;;;;;;;;;;2088622;28;20086;-68
2021/05/14 03:11:52;;;;;;;6.15;2.35;;;;;;;;;;2089222;28;20516;-68
2021/05/14 03:12:52;;;;;;;5.63;2.45;;;;;;;;;;2088531;28;20021;-69
2021/05/14 03:13:52;;;;;;;6.90;2.50;;;;;;;;;;2089254;28;20928;-68
2021/05/14 03:14:53;;;;;;;7.45;2.40;;;;;;;;;;2088859;28;20091;-67
2021/05/14 03:15:53;;;;;;;5.60;2.40;;;;;;;;;;2089160;28;20043;-67
2021/05/14 03:16:54;;;;;;;5.15;2.10;;;;;;;;;;2088974;28;20029;-66
2021/05/14 03:17:54;;;;;;;5.45;2.30;;;;;;;;;;2089163;28;20464;-69
2021/05/14 03:18:54;;;;;;;6.97;2.30;;;;;;;;;;2088988;28;20391;-67
2021/05/14 03:19:55;;;;;;;6.63;2.70;;;;;;;;;;2088905;28;20041;-67
2021/05/14 03:20:55;;;;;;;6.13;2.60;;;;;;;;;;2088148;28;20033;-73
2021/05/14 03:21:56;;;;;;;5.55;2.25;;;;;;;;;;2089038;28;20099;-69
2021/05/14 03:22:56;;;;;;;8.15;2.30;;;;;;;;;;2089053;28;20120;-70
2021/05/14 03:23:59;;;;;;;8.02;2.45;;;;;;;;;;2089074;28;20029;-70
2021/05/14 03:25:00;;;;;;;6.15;2.03;;;;;;;;;;2089189;28;20037;-70
2021/05/14 03:26:00;;;;;;;8.88;2.53;;;;;;;;;;2090664;28;20502;-68
2021/05/14 03:27:00;;;;;;;5.45;2.30;;;;;;;;;;2090746;28;20361;-69
2021/05/14 03:28:01;;;;;;;6.38;2.45;;;;;;;;;;2090166;28;20472;-68
2021/05/14 03:29:01;;;;;;;6.38;2.20;;;;;;;;;;2090697;28;20067;-69
2021/05/14 03:30:03;;;;;;;6.45;2.17;;;;;;;;;;2090349;28;20039;-68
2021/05/14 03:31:04;;;;;;;7.65;2.63;;;;;;;;;;2090398;28;20028;-69
2021/05/14 03:32:04;;;;;;;8.00;2.30;;;;;;;;;;2090645;28;20044;-68
2021/05/14 03:33:05;;;;;;;7.57;2.10;;;;;;;;;;2089955;28;20092;-68
2021/05/14 03:34:05;;;;;;;7.30;2.47;;;;;;;;;;2089928;28;20040;-68
2021/05/14 03:35:06;;;;;;;7.80;1.92;;;;;;;;;;2089995;28;20029;-68
2021/05/14 03:36:06;;;;;;;5.07;1.90;;;;;;;;;;2090621;28;20495;-69
2021/05/14 03:37:06;;;;;;;4.53;2.00;;;;;;;;;;2090522;28;20052;-68
2021/05/14 03:38:07;;;;;;;6.28;2.20;;;;;;;;;;2090517;28;20037;-69
2021/05/14 03:39:11;;;;;;;5.25;1.90;;;;;;;;;;2090747;28;20033;-69
2021/05/14 03:40:18;;;;;;;7.32;2.20;;;;;;;;;;2090534;28;20021;-69
2021/05/14 03:42:28;;;;;;;6.10;2.20;;;;;;;;;;2089990;28;20466;-68
2021/05/14 03:43:29;;;;;;;5.55;2.30;;;;;;;;;;2090627;28;20037;-69
2021/05/14 03:44:30;;;;;;;5.18;2.13;;;;;;;;;;2086376;28;20033;-69
2021/05/14 03:45:30;;;;;;;4.93;2.10;;;;;;;;;;2090637;28;20078;-68
2021/05/14 03:46:31;;;;;;;6.60;2.22;;;;;;;;;;2090503;28;20095;-69
2021/05/14 03:47:31;;;;;;;4.95;1.90;;;;;;;;;;2090671;28;20041;-68
2021/05/14 03:48:31;;;;;;;6.10;2.45;;;;;;;;;;2090415;28;20040;-69
2021/05/14 03:49:38;;;;;;;6.18;2.20;;;;;;;;;;2090584;28;20120;-68
2021/05/14 03:50:38;;;;;;;4.28;2.00;;;;;;;;;;2090124;28;20519;-68
2021/05/14 03:51:39;;;;;;;5.25;1.83;;;;;;;;;;2090311;28;20108;-68
2021/05/14 03:52:39;;;;;;;3.85;1.88;;;;;;;;;;2090409;28;20032;-68
2021/05/14 03:53:40;;;;;;;5.70;2.00;;;;;;;;;;2090702;28;20488;-68
2021/05/14 03:54:41;;;;;;;6.47;2.08;;;;;;;;;;2090466;28;20396;-68
2021/05/14 03:55:41;;;;;;;5.55;1.90;;;;;;;;;;2089885;28;20424;-69
2021/05/14 03:56:41;;;;;;;6.18;2.13;;;;;;;;;;2089877;28;20033;-68
2021/05/14 03:57:42;;;;;;;5.35;2.13;;;;;;;;;;2089970;28;20036;-68
2021/05/14 03:58:42;;;;;;;4.13;1.98;;;;;;;;;;2090426;28;20032;-68
2021/05/14 03:59:42;;;;;;;3.63;1.70;;;;;;;;;;2090524;28;20025;-68
2021/05/14 04:00:43;;;;;;;4.68;2.05;;;;;;;;;;2090380;28;20025;-68
2021/05/14 04:01:43;;;;;;;5.10;2.00;;;;;;;;;;2097785;28;20033;-68
2021/05/14 04:02:43;;;;;;;6.30;2.15;;;;;;;;;;2097947;28;20518;-68
2021/05/14 04:03:44;;;;;;;6.68;2.20;;;;;;;;;;2090127;28;20419;-68
2021/05/14 04:04:44;;;;;;;6.07;2.40;;;;;;;;;;2082166;28;20344;-67
2021/05/14 04:05:44;;;;;;;4.53;1.77;;;;;;;;;;2086990;28;20047;-68
2021/05/14 04:06:45;;;;;;;6.10;2.10;;;;;;;;;;2077474;28;20067;-69
2021/05/14 04:07:47;;;;;;;5.97;2.10;;;;;;;;;;2089818;28;20025;-68
2021/05/14 04:08:47;;;;;;;4.03;1.90;;;;;;;;;;2089633;28;20350;-67
2021/05/14 04:10:00;;;;;;;4.05;1.90;;;;;;;;;;2089634;28;20066;-67
2021/05/14 04:11:26;;;;;;;4.50;1.98;;;;;;;;;;2084850;28;20021;-67
2021/05/14 04:14:48;;;;;;;4.85;1.90;;;;;;;;;;2089562;28;20404;-67
2021/05/14 04:15:48;;;;;;;5.80;2.10;;;;;;;;;;2090454;28;20123;-67
2021/05/14 04:16:49;;;;;;;5.15;1.70;;;;;;;;;;2089980;28;20025;-67
2021/05/14 04:17:49;;;;;;;4.93;1.98;;;;;;;;;;2090431;28;20100;-67
2021/05/14 04:18:49;;;;;;;4.47;1.85;;;;;;;;;;2090319;28;20113;-67
2021/05/14 04:19:50;;;;;;;5.70;1.88;;;;;;;;;;2090250;28;20076;-67
2021/05/14 04:20:50;;;;;;;6.13;2.00;;;;;;;;;;2089651;28;20029;-67
2021/05/14 04:21:53;;;;;;;5.32;1.90;;;;;;;;;;2090331;28;20112;-67
2021/05/14 04:22:53;;;;;;;3.42;1.60;;;;;;;;;;2090300;28;20053;-67
2021/05/14 04:23:53;;;;;;;4.53;2.00;;;;;;;;;;2089534;28;20079;-67
2021/05/14 04:24:54;;;;;;;4.10;1.90;;;;;;;;;;2089800;28;20041;-67
2021/05/14 04:25:55;;;;;;;4.53;2.00;;;;;;;;;;2090282;28;20472;-67
2021/05/14 04:26:56;;;;;;;5.72;1.90;;;;;;;;;;2089924;28;20033;-67
2021/05/14 04:27:56;;;;;;;5.68;1.80;;;;;;;;;;2089785;28;20488;-67
2021/05/14 04:28:56;;;;;;;5.90;2.30;;;;;;;;;;2089651;28;20143;-67
2021/05/14 04:29:56;;;;;;;5.00;1.92;;;;;;;;;;2089608;28;20037;-67
2021/05/14 04:30:57;;;;;;;5.85;2.25;;;;;;;;;;2090183;28;20045;-66
2021/05/14 04:31:57;;;;;;;3.97;1.85;;;;;;;;;;2090264;28;20116;-66
2021/05/14 04:32:59;;;;;;;4.57;2.00;;;;;;;;;;2090204;28;20021;-66
2021/05/14 04:33:59;;;;;;;4.28;1.85;;;;;;;;;;2090292;28;20095;-66
2021/05/14 04:34:59;;;;;;;3.80;1.90;;;;;;;;;;2089579;28;20067;-66
2021/05/14 04:36:00;;;;;;;3.33;1.60;;;;;;;;;;2090265;28;20115;-66
2021/05/14 04:37:00;;;;;;;3.95;1.80;;;;;;;;;;2088638;28;20409;-66
2021/05/14 04:38:00;;;;;;;5.90;1.73;;;;;;;;;;2090096;28;20025;-66
2021/05/14 04:39:01;;;;;;;3.97;2.20;;;;;;;;;;2090207;28;20395;-66
2021/05/14 04:40:02;;;;;;;6.05;2.28;;;;;;;;;;2090284;28;20047;-66
2021/05/14 04:41:02;;;;;;;5.95;1.80;;;;;;;;;;2090323;28;20376;-66
2021/05/14 04:42:02;;;;;;;5.57;1.90;;;;;;;;;;2090111;28;20096;-66
2021/05/14 04:43:03;;;;;;;6.57;2.38;;;;;;;;;;2089576;28;20511;-66
2021/05/14 04:44:04;;;;;;;5.55;2.20;;;;;;;;;;2090179;28;20037;-66
2021/05/14 04:45:05;;;;;;;3.47;1.95;;;;;;;;;;2090164;28;20036;-66
2021/05/14 04:46:05;;;;;;;4.15;1.70;;;;;;;;;;2090038;28;20037;-66
2021/05/14 04:47:05;;;;;;;3.85;1.90;;;;;;;;;;2089770;28;20024;-66
2021/05/14 04:48:09;;;;;;;5.07;1.88;;;;;;;;;;2090118;28;20145;-66
2021/05/14 04:49:10;;;;;;;4.97;2.15;;;;;;;;;;2090147;28;20124;-66
2021/05/14 04:50:17;;;;;;;5.30;1.98;;;;;;;;;;2088686;28;20033;-66
2021/05/14 04:51:18;;;;;;;5.00;2.20;;;;;;;;;;2082081;28;20032;-66
2021/05/14 04:52:25;;;;;;;7.93;2.20;;;;;;;;;;2089500;28;20060;-66
2021/05/14 04:53:28;;;;;;;3.88;2.00;;;;;;;;;;2090100;28;20040;-66
2021/05/14 04:54:29;;;;;;;7.38;2.10;;;;;;;;;;2090017;28;20033;-66
2021/05/14 04:55:29;;;;;;;3.80;1.98;;;;;;;;;;2090084;28;20041;-66
2021/05/14 04:56:29;;;;;;;5.40;2.10;;;;;;;;;;2089699;28;20108;-66
2021/05/14 04:57:29;;;;;;;5.60;1.95;;;;;;;;;;2089496;28;20029;-66
2021/05/14 04:58:30;;;;;;;4.93;1.77;;;;;;;;;;2097709;28;20045;-67
2021/05/14 04:59:30;;;;;;;5.10;2.20;;;;;;;;;;2097629;28;20041;-68
2021/05/14 05:00:31;;;;;;;3.38;1.83;;;;;;;;;;2089371;28;20086;-68
2021/05/14 05:01:31;;;;;;;4.97;2.10;;;;;;;;;;2089279;28;20037;-67
2021/05/14 05:02:31;;;;;;;5.75;2.33;;;;;;;;;;2090052;28;20025;-68
2021/05/14 05:03:32;;;;;;;4.85;1.92;;;;;;;;;;2089896;28;20033;-68
2021/05/14 05:04:36;;;;;;;4.70;1.85;;;;;;;;;;2089665;28;20541;-68
2021/05/14 05:05:36;;;;;;;5.07;1.92;;;;;;;;;;2089812;28;20025;-68
2021/05/14 05:06:37;;;;;;;4.90;2.15;;;;;;;;;;2089508;28;20392;-67
2021/05/14 05:07:38;;;;;;;6.85;2.17;;;;;;;;;;2090066;28;20071;-68
2021/05/14 05:08:38;;;;;;;4.85;2.15;;;;;;;;;;2090001;28;20025;-68
2021/05/14 05:09:38;;;;;;;7.55;2.10;;;;;;;;;;2089914;28;20559;-67
2021/05/14 05:10:39;;;;;;;7.07;2.17;;;;;;;;;;2090028;28;20033;-68
2021/05/14 05:11:39;;;;;;;5.40;1.90;;;;;;;;;;2089963;28;20090;-67
2021/05/14 05:12:39;;;;;;;4.43;2.08;;;;;;;;;;2089461;28;20025;-68
2021/05/14 05:13:40;;;;;;;3.85;1.90;;;;;;;;;;2089894;28;20452;-67
2021/05/14 05:14:40;;;;;;;5.47;2.40;;;;;;;;;;2089954;28;20029;-67
2021/05/14 05:15:40;;;;;;;4.88;2.10;;;;;;;;;;2089781;28;20037;-68
2021/05/14 05:16:41;;;;;;;4.20;1.95;;;;;;;;;;2089466;28;20112;-67
2021/05/14 05:17:41;;;;;;;5.05;2.40;;;;;;;;;;2090013;28;20036;-67
2021/05/14 05:18:42;;;;;;;5.55;2.30;;;;;;;;;;2089846;28;20064;-67
2021/05/14 05:19:42;;;;;;;4.90;2.28;;;;;;;;;;2089303;28;20400;-69
2021/05/14 05:20:42;;;;;;;6.50;2.40;;;;;;;;;;2089694;28;20103;-68
2021/05/14 05:21:43;;;;;;;4.88;2.10;;;;;;;;;;2089863;28;20490;-67
2021/05/14 05:22:43;;;;;;;6.57;2.50;;;;;;;;;;2089842;28;20036;-67
2021/05/14 05:23:43;;;;;;;6.13;2.40;;;;;;;;;;2089923;28;20020;-67
2021/05/14 05:24:44;;;;;;;5.82;2.40;;;;;;;;;;2089835;28;20481;-68
2021/05/14 05:25:44;;;;;;;6.90;2.00;;;;;;;;;;2089858;28;20554;-67
2021/05/14 05:26:44;;;;;;;5.85;2.40;;;;;;;;;;2088998;28;20464;-68
2021/05/14 05:27:45;;;;;;;5.18;2.30;;;;;;;;;;2089792;28;20400;-68
2021/05/14 05:28:45;;;;;;;4.75;2.20;;;;;;;;;;2089794;28;20035;-67
2021/05/14 05:29:45;;;;;;;4.05;2.08;;;;;;;;;;2089801;28;20480;-68
2021/05/14 05:30:46;;;;;;;5.18;2.30;;;;;;;;;;2089024;28;20171;-67
2021/05/14 05:31:46;;;;;;;4.53;2.10;;;;;;;;;;2089299;28;20169;-67
2021/05/14 05:32:46;;;;;;;5.35;2.53;;;;;;;;;;2089725;28;20507;-67
2021/05/14 05:33:47;;;;;;;3.65;2.30;;;;;;;;;;2089816;28;20400;-67
2021/05/14 05:34:47;;;;;;;5.07;2.40;;;;;;;;;;2089318;28;20112;-67
2021/05/14 05:35:47;;;;;;;4.50;2.30;;;;;;;;;;2089655;28;20480;-67
2021/05/14 05:36:48;;;;;;;3.95;2.20;;;;;;;;;;2089302;28;20104;-67
2021/05/14 05:37:48;;;;;;;6.03;2.47;;;;;;;;;;2089672;28;20033;-69
2021/05/14 05:38:50;;;;;;;6.72;2.40;;;;;;;;;;2089605;28;20032;-67
2021/05/14 05:39:50;;;;;;;5.47;2.47;;;;;;;;;;2089755;28;20017;-69
2021/05/14 05:40:51;;;;;;;6.38;2.65;;;;;;;;;;2089573;28;20442;-68
2021/05/14 05:41:51;;;;;;;3.63;1.80;;;;;;;;;;2089207;28;20029;-67
2021/05/14 05:42:51;;;;;;;5.22;2.30;;;;;;;;;;2089478;28;20124;-67
2021/05/14 05:43:52;;;;;;;4.60;1.98;;;;;;;;;;2089766;28;20041;-69
2021/05/14 05:44:52;;;;;;;4.35;1.90;;;;;;;;;;2089602;28;20033;-67
2021/05/14 05:45:52;;;;;;;5.03;2.17;;;;;;;;;;2089719;28;20056;-67
2021/05/14 05:46:53;;;;;;;5.28;2.33;;;;;;;;;;2089125;28;20037;-69
2021/05/14 05:47:53;;;;;;;4.72;2.60;;;;;;;;;;2089534;28;20033;-67
2021/05/14 05:48:54;;;;;;;6.07;2.40;;;;;;;;;;2088823;28;20029;-69
2021/05/14 05:49:54;;;;;;;5.32;2.53;;;;;;;;;;2089485;28;20152;-67
2021/05/14 05:50:55;;;;;;;3.47;2.05;;;;;;;;;;2089474;28;20029;-67
2021/05/14 05:51:55;;;;;;;5.95;2.67;;;;;;;;;;2089737;28;20044;-67
2021/05/14 05:52:56;;;;;;;5.47;2.50;;;;;;;;;;2089589;28;20032;-67
2021/05/14 05:53:56;;;;;;;5.40;2.50;;;;;;;;;;2089812;28;20017;-67
2021/05/14 05:54:56;;;;;;;5.03;2.35;;;;;;;;;;2089494;28;20380;-67
2021/05/14 05:55:57;;;;;;;5.93;2.40;;;;;;;;;;2089548;28;20606;-67
2021/05/14 05:56:58;;;;;;;4.35;2.38;;;;;;;;;;2088706;28;20052;-67
2021/05/14 05:58:18;;;;;;;5.95;2.65;;;;;;;;;;2089554;28;20052;-69
2021/05/14 05:59:18;;;;;;;;;;;;;;;;;;2089711;28;20377;-69
2021/05/14 06:00:19;;;;;;;6.28;2.50;;;;;;;;;;2089592;28;19908;-67
2021/05/14 06:01:20;;;;;;;5.53;2.42;;;;;;;;;;2089445;28;20027;-67
2021/05/14 06:02:20;;;;;;;5.63;2.80;;;;;;;;;;2089565;28;20025;-67
2021/05/14 06:03:20;;;;;;;4.10;2.25;;;;;;;;;;2089301;28;20036;-67
2021/05/14 06:04:21;;;;;;;4.70;2.40;;;;;;;;;;2089148;28;20103;-67
2021/05/14 06:05:21;;;;;;;3.28;1.70;;;;;;;;;;2096819;28;20036;-69
2021/05/14 06:06:21;;;;;;;4.60;2.33;;;;;;;;;;2097275;28;20012;-69
2021/05/14 06:07:21;;;;;;;5.93;2.63;;;;;;;;;;2088987;28;20357;-69
2021/05/14 06:08:24;;;;;;;6.47;2.72;;;;;;;;;;2089601;28;20029;-66